Time;durP1;ratioP1;P1;durP2;ratioP2;P2;SDS_P1;SDS_P2;PMS_P1;PMS_P2;Temp;Humidity;BMP_temperature;BMP_pressure;BME280_temperature;BME280_humidity;BME280_pressure;Samples;Min_cycle;Max_cycle;Signal;HPM_P1;HPM_P2
2023/05/26 00:02:21;;;;;;;23.95;5.15;;;;;;;-148.88;100.00;-17125.47;4955357;29;20031;-76
2023/05/26 00:04:46;;;;;;;23.85;4.20;;;;;;;-148.88;100.00;-17125.47;4953795;28;20035;-76
2023/05/26 00:07:12;;;;;;;30.35;4.30;;;;;;;-148.88;100.00;-17125.47;4955141;28;20501;-76
2023/05/26 00:09:37;;;;;;;25.77;4.32;;;;;;;-148.88;100.00;-17125.47;4953872;28;20410;-76
2023/05/26 00:12:04;;;;;;;20.80;4.60;;;;;;;-148.88;100.00;-17125.47;4955115;28;20027;-76
2023/05/26 00:14:30;;;;;;;28.45;3.95;;;;;;;-148.88;100.00;-17125.47;4955136;28;20042;-76
2023/05/26 00:16:55;;;;;;;21.73;4.57;;;;;;;-148.88;100.00;-17125.47;4953684;29;20450;-76
2023/05/26 00:19:21;;;;;;;22.65;3.50;;;;;;;-148.88;100.00;-17125.47;4954930;28;20055;-76
2023/05/26 00:21:47;;;;;;;23.42;4.82;;;;;;;-148.88;100.00;-17125.47;4954948;28;20027;-76
2023/05/26 00:24:12;;;;;;;24.17;3.70;;;;;;;-148.88;100.00;-17125.47;4954844;28;20039;-76
2023/05/26 00:26:37;;;;;;;15.95;4.10;;;;;;;-148.88;100.00;-17125.47;4954824;28;20062;-76
2023/05/26 00:29:03;;;;;;;22.20;4.82;;;;;;;-148.88;100.00;-17125.47;4953451;28;20031;-76
2023/05/26 00:31:29;;;;;;;17.42;3.00;;;;;;;-148.88;100.00;-17125.47;4954928;28;20053;-76
2023/05/26 00:33:55;;;;;;;23.90;3.70;;;;;;;-148.88;100.00;-17125.47;4954795;28;20079;-76
2023/05/26 00:36:20;;;;;;;38.95;7.30;;;;;;;-148.88;100.00;-17125.47;4954700;28;20030;-76
2023/05/26 00:38:45;;;;;;;16.63;3.83;;;;;;;-148.88;100.00;-17125.47;4954801;28;20406;-76
2023/05/26 00:41:11;;;;;;;23.80;3.42;;;;;;;-148.88;100.00;-17125.47;4954943;28;20105;-76
2023/05/26 00:43:36;;;;;;;20.80;4.43;;;;;;;-148.88;100.00;-17125.47;4953377;28;20032;-76
2023/05/26 00:46:01;;;;;;;48.10;9.07;;;;;;;-148.88;100.00;-17125.47;4954620;28;20106;-76
2023/05/26 00:48:27;;;;;;;34.38;4.35;;;;;;;-148.88;100.00;-17125.47;4954532;28;20023;-76
2023/05/26 00:50:53;;;;;;;22.80;3.90;;;;;;;-148.88;100.00;-17125.47;4954799;28;20034;-76
2023/05/26 00:53:18;;;;;;;25.45;4.43;;;;;;;-148.88;100.00;-17125.47;4954451;28;20034;-76
2023/05/26 00:55:45;;;;;;;19.95;3.92;;;;;;;-148.88;100.00;-17125.47;4954513;28;20078;-76
2023/05/26 00:58:11;;;;;;;19.88;3.95;;;;;;;-148.88;100.00;-17125.47;4954678;28;20485;-75
2023/05/26 01:00:37;;;;;;;25.20;4.25;;;;;;;-148.88;100.00;-17125.47;4952892;28;20031;-76
2023/05/26 01:03:04;;;;;;;21.10;4.13;;;;;;;-148.88;100.00;-17125.47;4954420;28;20379;-76
2023/05/26 01:05:29;;;;;;;12.70;3.00;;;;;;;-148.88;100.00;-17125.47;4954323;28;20038;-76
2023/05/26 01:07:55;;;;;;;36.70;7.95;;;;;;;-148.88;100.00;-17125.47;4953436;29;20023;-76
2023/05/26 01:10:21;;;;;;;21.00;4.50;;;;;;;-148.88;100.00;-17125.47;4954464;28;20023;-76
2023/05/26 01:13:02;;;;;;;22.23;3.30;;;;;;;-148.88;100.00;-17125.47;4954427;28;20019;-75
2023/05/26 01:15:42;;;;;;;23.90;3.35;;;;;;;-148.88;100.00;-17125.47;4954353;28;20049;-76
2023/05/26 01:18:17;;;;;;;20.48;4.93;;;;;;;-148.88;100.00;-17125.47;4954453;28;20106;-76
2023/05/26 01:21:05;;;;;;;17.65;3.72;;;;;;;-148.88;100.00;-17125.47;4954572;28;20106;-75
2023/05/26 01:23:59;;;;;;;24.98;4.32;;;;;;;-148.88;100.00;-17125.47;4954602;28;20502;-75
2023/05/26 01:26:43;;;;;;;30.42;5.13;;;;;;;-148.88;100.00;-17125.47;4953120;28;20034;-76
2023/05/26 01:29:11;;;;;;;25.17;4.03;;;;;;;-148.88;100.00;-17125.47;4954971;28;20036;-76
2023/05/26 01:31:39;;;;;;;35.40;4.88;;;;;;;-148.88;100.00;-17125.47;4954318;28;20039;-75
2023/05/26 01:34:05;;;;;;;26.33;4.20;;;;;;;-148.88;100.00;-17125.47;4953089;29;20078;-76
2023/05/26 01:36:31;;;;;;;29.00;4.65;;;;;;;-148.88;100.00;-17125.47;4954355;28;20027;-76
2023/05/26 01:38:59;;;;;;;28.38;5.00;;;;;;;-148.88;100.00;-17125.47;4954222;28;20027;-76
2023/05/26 01:41:32;;;;;;;32.05;4.57;;;;;;;-148.88;100.00;-17125.47;4954234;28;20078;-76
2023/05/26 01:44:08;;;;;;;30.38;5.00;;;;;;;-148.88;100.00;-17125.47;4952949;28;20034;-76
2023/05/26 01:46:50;;;;;;;21.10;4.18;;;;;;;-148.88;100.00;-17125.47;4954077;28;20098;-76
2023/05/26 01:49:19;;;;;;;30.42;5.32;;;;;;;-148.88;100.00;-17125.47;4952972;28;20375;-76
2023/05/26 01:51:50;;;;;;;22.70;3.03;;;;;;;-148.88;100.00;-17125.47;4952810;28;20031;-76
2023/05/26 01:54:18;;;;;;;28.67;4.88;;;;;;;-148.88;100.00;-17125.47;4953911;28;20129;-76
2023/05/26 01:56:45;;;;;;;16.70;4.75;;;;;;;-148.88;100.00;-17125.47;4953763;28;20054;-76
2023/05/26 01:59:11;;;;;;;20.98;4.35;;;;;;;-148.88;100.00;-17125.47;4953931;28;20035;-75
2023/05/26 02:01:37;;;;;;;37.40;8.48;;;;;;;-148.88;100.00;-17125.47;4953826;28;20028;-75
2023/05/26 02:04:03;;;;;;;28.90;4.57;;;;;;;-148.88;100.00;-17125.47;4952580;28;20031;-76
2023/05/26 02:06:29;;;;;;;38.92;8.80;;;;;;;-148.88;100.00;-17125.47;4952571;28;20023;-76
2023/05/26 02:08:55;;;;;;;24.70;4.05;;;;;;;-148.88;100.00;-17125.47;4953774;28;20027;-76
2023/05/26 02:11:20;;;;;;;33.53;4.80;;;;;;;-148.88;100.00;-17125.47;4955073;28;20338;-75
2023/05/26 02:13:46;;;;;;;23.23;4.20;;;;;;;-148.88;100.00;-17125.47;4957924;28;20020;-75
2023/05/26 02:16:13;;;;;;;25.05;4.32;;;;;;;-148.88;100.00;-17125.47;4957271;28;20023;-75
2023/05/26 02:18:39;;;;;;;26.45;4.75;;;;;;;-148.88;100.00;-17125.47;4956002;28;20074;-75
2023/05/26 02:21:04;;;;;;;28.65;4.43;;;;;;;-148.88;100.00;-17125.47;4955869;29;20031;-76
2023/05/26 02:23:32;;;;;;;23.42;4.10;;;;;;;-148.88;100.00;-17125.47;4957230;28;20051;-76
2023/05/26 02:25:57;;;;;;;26.88;5.32;;;;;;;-148.88;100.00;-17125.47;4956035;28;20030;-76
2023/05/26 02:28:22;;;;;;;29.02;5.28;;;;;;;-148.88;100.00;-17125.47;4957157;28;20105;-76
2023/05/26 02:30:48;;;;;;;21.10;4.55;;;;;;;-148.88;100.00;-17125.47;4957102;28;20023;-76
2023/05/26 02:33:13;;;;;;;27.70;4.38;;;;;;;-148.88;100.00;-17125.47;4956956;28;20028;-75
2023/05/26 02:35:38;;;;;;;34.38;4.85;;;;;;;-148.88;100.00;-17125.47;4957279;28;20023;-75
2023/05/26 02:38:04;;;;;;;13.98;3.55;;;;;;;-148.88;100.00;-17125.47;4956939;28;20032;-76
2023/05/26 02:40:29;;;;;;;19.52;5.35;;;;;;;-148.88;100.00;-17125.47;4956937;28;20552;-76
2023/05/26 02:42:55;;;;;;;38.80;8.50;;;;;;;-148.88;100.00;-17125.47;4957155;28;20035;-76
2023/05/26 02:45:20;;;;;;;28.45;5.60;;;;;;;-148.88;100.00;-17125.47;4956769;28;20030;-76
2023/05/26 02:47:45;;;;;;;24.35;4.55;;;;;;;-148.88;100.00;-17125.47;4955505;28;20023;-76
2023/05/26 02:50:12;;;;;;;16.58;3.70;;;;;;;-148.88;100.00;-17125.47;4956851;28;20026;-76
2023/05/26 02:52:37;;;;;;;21.42;3.88;;;;;;;-148.88;100.00;-17125.47;4956820;28;20484;-76
2023/05/26 02:55:03;;;;;;;24.63;4.03;;;;;;;-148.88;100.00;-17125.47;4956911;28;20027;-76
2023/05/26 02:57:28;;;;;;;35.78;4.78;;;;;;;-148.88;100.00;-17125.47;4986554;23;20038;-81
2023/05/26 02:59:54;;;;;;;19.83;4.93;;;;;;;-148.88;100.00;-17125.47;5016618;28;20065;-82
2023/05/26 03:02:19;;;;;;;20.15;4.30;;;;;;;-148.88;100.00;-17125.47;5015790;28;20476;-82
2023/05/26 03:04:44;;;;;;;30.10;4.53;;;;;;;-148.88;100.00;-17125.47;5015683;28;20125;-83
2023/05/26 03:07:10;;;;;;;25.90;5.03;;;;;;;-148.88;100.00;-17125.47;5015893;28;20022;-81
2023/05/26 03:09:35;;;;;;;25.63;5.15;;;;;;;-148.88;100.00;-17125.47;5025803;23;21346;-76
2023/05/26 03:12:00;;;;;;;22.30;3.90;;;;;;;-148.88;100.00;-17125.47;5015960;28;20037;-76
2023/05/26 03:14:26;;;;;;;21.95;4.70;;;;;;;-148.88;100.00;-17125.47;5013977;28;20036;-75
2023/05/26 03:16:52;;;;;;;21.23;4.50;;;;;;;-148.88;100.00;-17125.47;4994288;28;20027;-75
2023/05/26 03:19:17;;;;;;;25.77;5.25;;;;;;;-148.88;100.00;-17125.47;4995450;28;20173;-75
2023/05/26 03:21:43;;;;;;;22.45;5.53;;;;;;;-148.88;100.00;-17125.47;4995398;28;20030;-76
2023/05/26 03:24:08;;;;;;;18.90;3.75;;;;;;;-148.88;100.00;-17125.47;4995233;28;20037;-75
2023/05/26 03:26:34;;;;;;;20.23;4.80;;;;;;;-148.88;100.00;-17125.47;4995274;28;20026;-76
2023/05/26 03:28:59;;;;;;;21.17;4.93;;;;;;;-148.88;100.00;-17125.47;4993945;28;20022;-76
2023/05/26 03:31:26;;;;;;;29.60;4.38;;;;;;;-148.88;100.00;-17125.47;4993956;28;20025;-75
2023/05/26 03:33:51;;;;;;;28.75;4.68;;;;;;;-148.88;100.00;-17125.47;4995236;28;20026;-76
2023/05/26 03:36:17;;;;;;;20.85;4.32;;;;;;;-148.88;100.00;-17125.47;4995227;28;20032;-75
2023/05/26 03:38:43;;;;;;;18.33;5.13;;;;;;;-148.88;100.00;-17125.47;4994195;28;20022;-76
2023/05/26 03:41:09;;;;;;;25.63;4.10;;;;;;;-148.88;100.00;-17125.47;4995666;28;20033;-78
2023/05/26 03:43:34;;;;;;;26.80;4.70;;;;;;;-148.88;100.00;-17125.47;4995902;28;20035;-75
2023/05/26 03:46:00;;;;;;;18.98;4.78;;;;;;;-148.88;100.00;-17125.47;4995304;28;20109;-76
2023/05/26 03:48:26;;;;;;;23.55;4.30;;;;;;;-148.88;100.00;-17125.47;4994411;28;20579;-75
2023/05/26 03:50:51;;;;;;;33.58;8.15;;;;;;;-148.88;100.00;-17125.47;4993969;28;20116;-75
2023/05/26 03:53:16;;;;;;;21.48;3.88;;;;;;;-148.88;100.00;-17125.47;4994113;28;20022;-75
2023/05/26 03:55:42;;;;;;;29.20;4.65;;;;;;;-148.88;100.00;-17125.47;4995142;28;20085;-75
2023/05/26 03:58:07;;;;;;;20.65;4.25;;;;;;;-148.88;100.00;-17125.47;4995366;28;20109;-75
2023/05/26 04:00:32;;;;;;;22.35;3.88;;;;;;;-148.88;100.00;-17125.47;4994922;28;20050;-76
2023/05/26 04:02:59;;;;;;;22.95;4.53;;;;;;;-148.88;100.00;-17125.47;4994823;28;20385;-75
2023/05/26 04:05:25;;;;;;;23.10;4.15;;;;;;;-148.88;100.00;-17125.47;4994570;28;20397;-75
2023/05/26 04:07:50;;;;;;;17.20;3.42;;;;;;;-148.88;100.00;-17125.47;4994871;28;20029;-74
2023/05/26 04:10:16;;;;;;;19.95;4.30;;;;;;;-148.88;100.00;-17125.47;4993058;28;20037;-75
2023/05/26 04:12:42;;;;;;;19.48;3.90;;;;;;;-148.88;100.00;-17125.47;4994496;28;20037;-75
2023/05/26 04:15:11;;;;;;;21.15;4.43;;;;;;;-148.88;100.00;-17125.47;4994438;28;20033;-75
2023/05/26 04:17:37;;;;;;;15.57;3.97;;;;;;;-148.88;100.00;-17125.47;4993444;28;20108;-75
2023/05/26 04:20:07;;;;;;;23.10;4.00;;;;;;;-148.88;100.00;-17125.47;4994578;28;20030;-75
2023/05/26 04:22:33;;;;;;;17.40;3.83;;;;;;;-148.88;100.00;-17125.47;4994542;28;20023;-75
2023/05/26 04:24:58;;;;;;;18.52;4.72;;;;;;;-148.88;100.00;-17125.47;4995516;28;20030;-75
2023/05/26 04:27:24;;;;;;;16.65;5.18;;;;;;;-148.88;100.00;-17125.47;4994684;28;20022;-75
2023/05/26 04:29:50;;;;;;;14.68;3.67;;;;;;;-148.88;100.00;-17125.47;4994466;28;20026;-75
2023/05/26 04:32:16;;;;;;;22.17;3.95;;;;;;;-148.88;100.00;-17125.47;4994565;28;20022;-75
2023/05/26 04:34:44;;;;;;;31.17;8.30;;;;;;;-148.88;100.00;-17125.47;4992538;28;20032;-75
2023/05/26 04:37:09;;;;;;;17.70;3.95;;;;;;;-148.88;100.00;-17125.47;4994308;28;20481;-75
2023/05/26 04:39:35;;;;;;;18.35;3.35;;;;;;;-148.88;100.00;-17125.47;4994197;28;20026;-74
2023/05/26 04:42:02;;;;;;;22.98;4.57;;;;;;;-148.88;100.00;-17125.47;4992882;28;20037;-75
2023/05/26 04:44:28;;;;;;;16.00;3.25;;;;;;;-148.88;100.00;-17125.47;4992623;28;20113;-77
2023/05/26 04:46:54;;;;;;;20.48;4.03;;;;;;;-148.88;100.00;-17125.47;4993863;28;20022;-76
2023/05/26 04:49:23;;;;;;;21.92;3.83;;;;;;;-148.88;100.00;-17125.47;4993997;28;20040;-76
2023/05/26 04:51:56;;;;;;;23.30;4.45;;;;;;;-148.88;100.00;-17125.47;4993956;28;20025;-76
2023/05/26 04:54:22;;;;;;;17.88;3.75;;;;;;;-148.88;100.00;-17125.47;4992738;28;20030;-76
2023/05/26 04:56:47;;;;;;;23.48;3.80;;;;;;;-148.88;100.00;-17125.47;4993962;28;20121;-76
2023/05/26 04:59:13;;;;;;;15.82;4.47;;;;;;;-148.88;100.00;-17125.47;4994339;28;20077;-76
2023/05/26 05:01:39;;;;;;;26.70;5.00;;;;;;;-148.88;100.00;-17125.47;4995856;28;20025;-76
2023/05/26 05:04:05;;;;;;;17.75;3.92;;;;;;;-148.88;100.00;-17125.47;4993887;28;20504;-75
2023/05/26 05:06:30;;;;;;;21.92;3.97;;;;;;;-148.88;100.00;-17125.47;4992537;28;20434;-75
2023/05/26 05:08:55;;;;;;;28.17;8.18;;;;;;;-148.88;100.00;-17125.47;4994349;28;20026;-75
2023/05/26 05:11:21;;;;;;;14.85;3.42;;;;;;;-148.88;100.00;-17125.47;4993709;28;20041;-75
2023/05/26 05:13:46;;;;;;;25.73;7.32;;;;;;;-148.88;100.00;-17125.47;4992297;28;20536;-75
2023/05/26 05:16:12;;;;;;;12.13;3.30;;;;;;;-148.88;100.00;-17125.47;4993599;28;20033;-76
2023/05/26 05:18:37;;;;;;;17.67;3.80;;;;;;;-148.88;100.00;-17125.47;4993960;28;20080;-75
2023/05/26 05:21:03;;;;;;;19.33;4.30;;;;;;;-148.88;100.00;-17125.47;4993498;28;20022;-76
2023/05/26 05:23:34;;;;;;;15.93;3.55;;;;;;;-148.88;100.00;-17125.47;4993524;28;20501;-75
2023/05/26 05:25:59;;;;;;;34.60;7.15;;;;;;;-148.88;100.00;-17125.47;4993909;28;20045;-75
2023/05/26 05:28:25;;;;;;;26.30;5.32;;;;;;;-148.88;100.00;-17125.47;4992331;28;20022;-75
2023/05/26 05:30:50;;;;;;;20.20;3.63;;;;;;;-148.88;100.00;-17125.47;4993615;28;20145;-75
2023/05/26 05:33:15;;;;;;;20.88;4.20;;;;;;;-148.88;100.00;-17125.47;4992264;28;20022;-75
2023/05/26 05:35:41;;;;;;;27.38;6.05;;;;;;;-148.88;100.00;-17125.47;4992352;28;20556;-76
2023/05/26 05:38:06;;;;;;;19.73;4.05;;;;;;;-148.88;100.00;-17125.47;4994349;28;20481;-76
2023/05/26 05:40:31;;;;;;;14.23;4.25;;;;;;;-148.88;100.00;-17125.47;4993942;28;20025;-76
2023/05/26 05:42:57;;;;;;;24.58;3.47;;;;;;;-148.88;100.00;-17125.47;4992549;28;20038;-75
2023/05/26 05:45:22;;;;;;;21.30;3.38;;;;;;;-148.88;100.00;-17125.47;4993585;28;20410;-75
2023/05/26 05:47:47;;;;;;;17.65;3.38;;;;;;;-148.88;100.00;-17125.47;4996185;28;20033;-76
2023/05/26 05:50:13;;;;;;;19.25;3.88;;;;;;;-148.88;100.00;-17125.47;4997445;28;20065;-76
2023/05/26 05:52:38;;;;;;;28.40;6.88;;;;;;;-148.88;100.00;-17125.47;4995960;28;20057;-76
2023/05/26 05:55:04;;;;;;;15.95;2.42;;;;;;;-148.88;100.00;-17125.47;4997558;28;20018;-76
2023/05/26 05:57:29;;;;;;;21.05;2.83;;;;;;;-148.88;100.00;-17125.47;4996982;28;20080;-76
2023/05/26 05:59:54;;;;;;;15.77;3.30;;;;;;;-148.88;100.00;-17125.47;4995636;28;20033;-76
2023/05/26 06:02:20;;;;;;;19.52;4.55;;;;;;;-148.88;100.00;-17125.47;4995586;28;20080;-75
2023/05/26 06:04:45;;;;;;;18.45;3.80;;;;;;;-148.88;100.00;-17125.47;4997037;28;20038;-76
2023/05/26 06:07:10;;;;;;;20.23;4.32;;;;;;;-148.88;100.00;-17125.47;4997044;28;20077;-76
2023/05/26 06:09:36;;;;;;;22.88;4.05;;;;;;;-148.88;100.00;-17125.47;4996636;28;20085;-75
2023/05/26 06:12:04;;;;;;;29.80;7.10;;;;;;;-148.88;100.00;-17125.47;4995583;28;20034;-75
2023/05/26 06:14:30;;;;;;;22.88;3.08;;;;;;;-148.88;100.00;-17125.47;4996823;28;20038;-77
2023/05/26 06:16:55;;;;;;;18.27;3.40;;;;;;;-148.88;100.00;-17125.47;4997341;28;20019;-76
2023/05/26 06:19:20;;;;;;;32.92;6.80;;;;;;;-148.88;100.00;-17125.47;4997099;28;20030;-76
2023/05/26 06:21:48;;;;;;;22.92;3.45;;;;;;;-148.88;100.00;-17125.47;4995276;28;20091;-76
2023/05/26 06:24:14;;;;;;;19.85;4.30;;;;;;;-148.88;100.00;-17125.47;4996520;28;20030;-76
2023/05/26 06:26:39;;;;;;;19.42;3.97;;;;;;;-148.88;100.00;-17125.47;4996411;28;20118;-75
2023/05/26 06:29:05;;;;;;;19.70;3.22;;;;;;;-148.88;100.00;-17125.47;4995180;28;20121;-76
2023/05/26 06:31:30;;;;;;;15.63;3.28;;;;;;;-148.88;100.00;-17125.47;4996329;28;20027;-76
2023/05/26 06:33:55;;;;;;;28.88;6.75;;;;;;;-148.88;100.00;-17125.47;4996249;28;20021;-76
2023/05/26 06:36:21;;;;;;;14.98;3.58;;;;;;;-148.88;100.00;-17125.47;4996219;28;20037;-76
2023/05/26 06:38:47;;;;;;;21.08;3.45;;;;;;;-148.88;100.00;-17125.47;4996281;28;20080;-75
2023/05/26 06:41:12;;;;;;;27.02;6.18;;;;;;;-148.88;100.00;-17125.47;4996499;28;20027;-75
2023/05/26 06:43:37;;;;;;;16.30;3.28;;;;;;;-148.88;100.00;-17125.47;4996105;28;20519;-76
2023/05/26 06:46:03;;;;;;;23.85;5.90;;;;;;;-148.88;100.00;-17125.47;4996646;28;20080;-76
2023/05/26 06:48:28;;;;;;;19.95;3.45;;;;;;;-148.88;100.00;-17125.47;4996368;28;20085;-75
2023/05/26 06:50:53;;;;;;;15.68;3.15;;;;;;;-148.88;100.00;-17125.47;4996632;28;20026;-75
2023/05/26 06:53:19;;;;;;;23.60;6.25;;;;;;;-148.88;100.00;-17125.47;4996475;28;20141;-76
2023/05/26 06:55:44;;;;;;;35.95;8.07;;;;;;;-148.88;100.00;-17125.47;4995210;28;20041;-75
2023/05/26 06:58:10;;;;;;;17.52;4.07;;;;;;;-148.88;100.00;-17125.47;4995588;28;20022;-75
2023/05/26 07:00:35;;;;;;;24.67;7.70;;;;;;;-148.88;100.00;-17125.47;4996252;28;20026;-76
2023/05/26 07:03:00;;;;;;;20.25;3.95;;;;;;;-148.88;99.86;-17125.47;4995942;28;20057;-76
2023/05/26 07:05:26;;;;;;;28.90;6.78;;;;;;;-148.88;100.00;-17125.47;4995862;28;20493;-76
2023/05/26 07:07:51;;;;;;;15.90;3.25;;;;;;;-148.88;100.00;-17125.47;4995933;28;20022;-77
2023/05/26 07:10:16;;;;;;;28.63;7.07;;;;;;;-148.88;100.00;-17125.47;4995686;28;20440;-75
2023/05/26 07:12:42;;;;;;;26.55;6.97;;;;;;;-148.88;100.00;-17125.47;4995635;28;20026;-75
2023/05/26 07:15:08;;;;;;;31.15;6.75;;;;;;;-148.88;100.00;-17125.47;4995518;28;20096;-75
2023/05/26 07:17:35;;;;;;;23.15;6.28;;;;;;;-148.88;97.20;-17125.47;4994262;28;20076;-75
2023/05/26 07:20:01;;;;;;;22.85;6.25;;;;;;;-148.88;97.26;-17125.47;4994256;28;20027;-76
2023/05/26 07:22:26;;;;;;;21.77;6.15;;;;;;;-148.88;95.43;-17125.47;4995337;28;20033;-75
2023/05/26 07:24:51;;;;;;;22.10;6.22;;;;;;;-148.88;96.98;-17125.47;4994239;28;20111;-75
2023/05/26 07:27:17;;;;;;;25.52;6.53;;;;;;;-148.88;99.01;-17125.47;4995715;28;20122;-75
2023/05/26 07:29:42;;;;;;;28.85;6.38;;;;;;;-148.88;96.72;-17125.47;4995995;28;20085;-74
2023/05/26 07:32:07;;;;;;;22.83;6.82;;;;;;;-148.88;96.58;-17125.47;4995403;28;20041;-74
2023/05/26 07:34:33;;;;;;;25.65;6.10;;;;;;;-148.88;97.54;-17125.47;4995326;28;20488;-75
2023/05/26 07:36:58;;;;;;;27.80;7.10;;;;;;;-148.88;98.40;-17125.47;4994270;28;20025;-75
2023/05/26 07:39:23;;;;;;;15.00;3.33;;;;;;;-148.88;96.91;-17125.47;4995190;28;20513;-74
2023/05/26 07:41:49;;;;;;;24.23;6.30;;;;;;;-148.88;95.86;-17125.47;4995089;28;20080;-74
2023/05/26 07:44:14;;;;;;;24.33;6.35;;;;;;;-148.88;95.84;-17125.47;4995291;28;20022;-74
2023/05/26 07:46:40;;;;;;;25.05;6.07;;;;;;;-148.88;94.58;-17125.47;4994862;28;20050;-74
2023/05/26 07:49:05;;;;;;;26.85;6.35;;;;;;;-148.88;95.23;-17125.47;4995209;28;20030;-74
2023/05/26 07:51:31;;;;;;;21.77;5.68;;;;;;;-148.88;92.95;-17125.47;4994785;28;20033;-74
2023/05/26 07:53:56;;;;;;;22.92;5.85;;;;;;;-148.88;95.23;-17125.47;4993601;28;20029;-74
2023/05/26 07:56:22;;;;;;;30.98;6.78;;;;;;;-148.88;93.01;-17125.47;4994783;28;20023;-74
2023/05/26 07:58:47;;;;;;;28.95;6.43;;;;;;;-148.88;90.37;-17125.47;4994996;28;20037;-74
2023/05/26 08:01:13;;;;;;;26.35;5.70;;;;;;;-148.88;89.10;-17125.47;4995304;28;20049;-75
2023/05/26 08:03:38;;;;;;;24.85;5.53;;;;;;;-148.88;89.82;-17125.47;4994201;28;20026;-74
2023/05/26 08:06:04;;;;;;;20.85;5.30;;;;;;;-148.88;88.63;-17125.47;4995216;28;20513;-74
2023/05/26 08:08:30;;;;;;;23.17;6.43;;;;;;;-148.88;90.18;-17125.47;4995080;28;20551;-74
2023/05/26 08:10:55;;;;;;;24.15;6.65;;;;;;;-148.88;96.20;-17125.47;4992669;28;20147;-75
2023/05/26 08:13:21;;;;;;;21.73;6.00;;;;;;;-148.88;93.56;-17125.47;4994834;28;20025;-74
2023/05/26 08:15:46;;;;;;;18.08;5.93;;;;;;;-148.88;93.72;-17125.47;4994512;28;20023;-74
2023/05/26 08:18:12;;;;;;;25.83;6.03;;;;;;;-148.88;93.96;-17125.47;4994518;28;20113;-74
2023/05/26 08:20:38;;;;;;;21.42;5.78;;;;;;;-148.88;90.31;-17125.47;4994391;28;20034;-74
2023/05/26 08:23:03;;;;;;;22.05;5.78;;;;;;;-148.88;91.85;-17125.47;4994200;28;20077;-74
2023/05/26 08:25:28;;;;;;;23.35;6.43;;;;;;;-148.88;91.39;-17125.47;4994207;28;20405;-74
2023/05/26 08:27:54;;;;;;;22.60;5.50;;;;;;;-148.88;90.05;-17125.47;4993063;28;20069;-75
2023/05/26 08:30:19;;;;;;;19.75;6.60;;;;;;;-148.88;87.61;-17125.47;4994373;28;20085;-75
2023/05/26 08:32:45;;;;;;;22.75;5.88;;;;;;;-148.88;86.58;-17125.47;4994285;28;20022;-74
2023/05/26 08:35:10;;;;;;;22.20;6.10;;;;;;;-148.88;92.92;-17125.47;4992918;28;20029;-74
2023/05/26 08:37:35;;;;;;;26.40;6.20;;;;;;;-148.88;91.14;-17125.47;4994271;28;20064;-75
2023/05/26 08:40:04;;;;;;;26.55;6.43;;;;;;;-148.88;89.86;-17125.47;4994175;28;20026;-75
2023/05/26 08:42:33;;;;;;;23.63;6.47;;;;;;;-148.88;90.46;-17125.47;4994655;28;20069;-74
2023/05/26 08:45:00;;;;;;;22.85;5.80;;;;;;;-148.88;90.14;-17125.47;4994578;28;20030;-75
2023/05/26 08:47:27;;;;;;;24.70;6.13;;;;;;;-148.88;87.60;-17125.47;4992860;28;20495;-75
2023/05/26 08:49:56;;;;;;;20.48;5.85;;;;;;;-148.88;82.76;-17125.47;4994015;28;20037;-74
2023/05/26 08:52:22;;;;;;;24.95;6.47;;;;;;;-148.88;86.21;-17125.47;4994436;28;20030;-74
2023/05/26 08:54:49;;;;;;;23.55;6.40;;;;;;;-148.88;88.80;-17125.47;4993785;28;20400;-74
2023/05/26 08:57:17;;;;;;;20.80;5.53;;;;;;;-148.88;88.70;-17125.47;4994071;28;20029;-74
2023/05/26 08:59:45;;;;;;;24.77;6.18;;;;;;;-148.88;86.47;-17125.47;4993791;28;20029;-74
2023/05/26 09:02:11;;;;;;;21.90;6.10;;;;;;;-148.88;85.15;-17125.47;4993969;28;20018;-74
2023/05/26 09:04:37;;;;;;;23.45;6.43;;;;;;;-148.88;87.08;-17125.47;4993899;28;20037;-74
2023/05/26 09:07:05;;;;;;;23.65;6.43;;;;;;;-148.88;85.48;-17125.47;4992517;28;20030;-74
2023/05/26 09:09:34;;;;;;;23.35;5.97;;;;;;;-148.88;82.94;-17125.47;4993737;28;20030;-74
2023/05/26 09:12:08;;;;;;;19.23;5.32;;;;;;;-148.88;85.88;-17125.47;4992602;28;20117;-75
2023/05/26 09:14:33;;;;;;;28.48;6.05;;;;;;;-148.88;85.53;-17125.47;4993746;28;20102;-74
2023/05/26 09:16:59;;;;;;;25.08;5.75;;;;;;;-148.88;83.32;-17125.47;4993992;28;20054;-74
2023/05/26 09:19:28;;;;;;;22.02;6.05;;;;;;;-148.88;78.38;-17125.47;4994190;28;20507;-74
2023/05/26 09:21:54;;;;;;;20.42;5.22;;;;;;;-148.88;81.44;-17125.47;4996666;28;20061;-75
2023/05/26 09:24:25;;;;;;;19.70;5.78;;;;;;;-148.88;81.29;-17125.47;4997771;28;20434;-75
2023/05/26 09:26:51;;;;;;;21.63;5.35;;;;;;;-148.88;76.92;-17125.47;4997882;28;20362;-75
2023/05/26 09:29:16;;;;;;;21.13;4.93;;;;;;;-148.88;78.23;-17125.47;4997827;28;20026;-74
2023/05/26 09:31:51;;;;;;;17.92;5.43;;;;;;;-148.88;76.29;-17125.47;4996208;28;20045;-74
2023/05/26 09:34:21;;;;;;;19.23;5.20;;;;;;;-148.88;79.07;-17125.47;4997758;28;20030;-74
2023/05/26 09:36:46;;;;;;;14.38;5.03;;;;;;;-148.88;77.00;-17125.47;4997308;28;20396;-74
2023/05/26 09:39:13;;;;;;;20.30;5.28;;;;;;;-148.88;72.26;-17125.47;4997787;28;20528;-72
2023/05/26 09:41:43;;;;;;;21.10;5.35;;;;;;;-148.88;77.39;-17125.47;4995884;28;20034;-72
2023/05/26 09:44:19;;;;;;;17.92;5.72;;;;;;;-148.88;72.97;-17125.47;4997339;28;20026;-74
2023/05/26 09:46:46;;;;;;;19.30;5.63;;;;;;;-148.88;78.37;-17125.47;4997123;28;20072;-74
2023/05/26 09:49:18;;;;;;;17.50;5.30;;;;;;;-148.88;71.44;-17125.47;4997544;28;20018;-75
2023/05/26 09:51:46;;;;;;;16.05;4.47;;;;;;;-148.88;77.77;-17125.47;4997104;28;20062;-72
2023/05/26 09:54:12;;;;;;;16.23;4.97;;;;;;;-148.88;72.23;-17125.47;4997217;28;20493;-75
2023/05/26 09:57:02;;;;;;;21.13;6.05;;;;;;;-148.88;80.05;-17125.47;4995972;28;20466;-73
2023/05/26 09:59:37;;;;;;;18.23;5.28;;;;;;;-148.88;76.31;-17125.47;4997101;28;20108;-74
2023/05/26 10:02:20;;;;;;;23.70;5.95;;;;;;;-148.88;77.16;-17125.47;4995589;28;20118;-74
2023/05/26 10:04:50;;;;;;;21.92;5.45;;;;;;;-148.88;78.42;-17125.47;4997261;28;20022;-74
2023/05/26 10:07:16;;;;;;;14.00;4.72;;;;;;;-148.88;72.92;-17125.47;4997355;28;20389;-73
2023/05/26 10:09:43;;;;;;;19.23;5.20;;;;;;;-148.88;70.48;-17125.47;4996987;28;20031;-73
2023/05/26 10:12:11;;;;;;;19.33;5.03;;;;;;;-148.88;75.88;-17125.47;4996696;28;20026;-73
2023/05/26 10:14:37;;;;;;;21.88;5.53;;;;;;;-148.88;76.84;-17125.47;4996830;28;20022;-73
2023/05/26 10:17:03;;;;;;;14.07;4.90;;;;;;;-148.88;74.93;-17125.47;4995357;28;20030;-73
2023/05/26 10:19:30;;;;;;;16.75;5.10;;;;;;;-148.88;67.17;-17125.47;4996538;28;20092;-73
2023/05/26 10:22:01;;;;;;;15.63;5.00;;;;;;;-148.88;71.51;-17125.47;4996480;28;20111;-73
2023/05/26 10:24:37;;;;;;;16.60;4.55;;;;;;;-148.88;77.01;-17125.47;5027379;23;20040;-89
2023/05/26 10:27:09;;;;;;;21.10;5.53;;;;;;;-148.88;71.13;-17125.47;5015114;28;20026;-89
2023/05/26 10:29:52;;;;;;;17.52;4.93;;;;;;;-148.88;71.10;-17125.47;5016391;28;20030;-88
2023/05/26 10:32:45;;;;;;;24.50;5.43;;;;;;;-148.88;71.70;-17125.47;5013577;28;20030;-88
2023/05/26 10:35:31;;;;;;;15.63;4.60;;;;;;;-148.88;68.46;-17125.47;5015366;28;20038;-88
2023/05/26 10:38:02;;;;;;;17.90;5.40;;;;;;;-148.88;75.77;-17125.47;5024605;23;20403;-76
2023/05/26 10:40:33;;;;;;;16.05;4.65;;;;;;;-148.88;73.97;-17125.47;5014154;28;20033;-75
2023/05/26 10:43:01;;;;;;;17.27;4.55;;;;;;;-148.88;70.92;-17125.47;5014065;28;20080;-75
2023/05/26 10:45:33;;;;;;;17.02;4.55;;;;;;;-148.88;67.56;-17125.47;5015840;28;20442;-76
2023/05/26 10:48:17;;;;;;;17.40;5.18;;;;;;;-148.88;67.06;-17125.47;5015347;28;20474;-76
2023/05/26 10:51:17;;;;;;;15.13;4.82;;;;;;;-148.88;65.87;-17125.47;5014397;28;20026;-75
2023/05/26 10:53:45;;;;;;;19.25;4.80;;;;;;;-148.88;67.96;-17125.47;5015156;28;20072;-75
2023/05/26 10:56:13;;;;;;;17.35;4.43;;;;;;;-148.88;62.50;-17125.47;5015561;28;20054;-75
2023/05/26 10:58:41;;;;;;;20.83;5.18;;;;;;;-148.88;69.36;-17125.47;5015251;28;20029;-76